Pietro Novelli — IOTQ — position and weather

sailwx.info

Track history (hours):
 
Tides and Currents Weather Stations Pressure Air Temp Water Temp Dewpoint Dewpoint Depression Visibility Wind Speed Wind Dir Waves Ship Positions

Pietro Novelli

Last reported at 2015-Mar-02 20:33 UTC. Time now 2015-Mar-02 20:40 UTC.
Position N 38°01' E 012°30'.

Length 91 m; draft 3.9 m.

Type: Ship. MMSI: 247000300.

Date/timePositionNaut miles runAvg speedWind from/ knotsBaromVisibWave heightAir tempDewpointWater temp
2015-Mar-02 20:33N 38°01' E 012°30'0 0.0
2015-Mar-02 19:33N 38°01' E 012°30'0 0.0
2015-Mar-02 18:33N 38°01' E 012°30'0 0.0
2015-Mar-02 17:33N 38°01' E 012°30'0 0.0
2015-Mar-02 16:33N 38°01' E 012°30'0 0.0
2015-Mar-02 15:33N 38°01' E 012°30'1 1.2
2015-Mar-02 14:33N 37°60' E 012°29'1312.7
2015-Mar-02 13:33N 37°50' E 012°19'4 0.3
2015-Mar-01 23:31N 37°46' E 012°20'1111.8
2015-Mar-01 22:33N 37°56' E 012°25'6 6.1
2015-Mar-01 21:33N 38°01' E 012°30'0 0.0
2015-Mar-01 20:33N 38°01' E 012°30'0 0.0
2015-Mar-01 19:33N 38°01' E 012°30'0 0.0
2015-Mar-01 18:33N 38°01' E 012°30'0 0.0
2015-Mar-01 17:33N 38°01' E 012°30'0 0.0
2015-Mar-01 16:33N 38°01' E 012°30'0 0.0
2015-Mar-01 15:33N 38°01' E 012°30'0 0.0
2015-Mar-01 14:33N 38°01' E 012°30'0 0.0
2015-Mar-01 13:33N 38°01' E 012°30'0 0.0
2015-Mar-01 12:33N 38°01' E 012°30'0 0.0
2015-Mar-01 11:33N 38°01' E 012°30'0 0.0
2015-Mar-01 10:33N 38°01' E 012°30'0 0.0
2015-Mar-01 09:33N 38°01' E 012°30'0 0.0
2015-Mar-01 08:34N 38°01' E 012°30'0 0.0
2015-Mar-01 07:32N 38°01' E 012°30'0 0.0
2015-Mar-01 06:33N 38°01' E 012°30'0 0.0
2015-Mar-01 05:33N 38°01' E 012°30'0 0.0
2015-Mar-01 04:33N 38°01' E 012°30'0 0.0
2015-Mar-01 03:32N 38°01' E 012°30'0 0.0
2015-Mar-01 02:33N 38°01' E 012°30'0 0.0
2015-Mar-01 01:33N 38°01' E 012°30'0 0.0
2015-Mar-01 00:33N 38°01' E 012°30'0 0.0
2015-Feb-28 23:33N 38°01' E 012°30'0 0.0
2015-Feb-28 22:32N 38°01' E 012°30'0 0.0
2015-Feb-28 21:33N 38°01' E 012°30'0 0.0
2015-Feb-28 20:33N 38°01' E 012°30'0 0.0
2015-Feb-28 19:34N 38°01' E 012°30'0 0.0
2015-Feb-28 18:33N 38°01' E 012°30'0 0.0
2015-Feb-28 17:33N 38°01' E 012°30'0 0.1
2015-Feb-28 16:33N 38°01' E 012°30'1313.4
2015-Feb-28 15:33N 37°50' E 012°20'5 0.3
2015-Feb-27 23:33N 37°46' E 012°20'1211.8
2015-Feb-27 22:33N 37°57' E 012°25'6 5.7
2015-Feb-27 21:33N 38°01' E 012°30'0 0.0
2015-Feb-27 20:33N 38°01' E 012°30'0 0.0
2015-Feb-27 19:33N 38°01' E 012°30'0 0.0
2015-Feb-27 18:33N 38°01' E 012°30'0 0.0
2015-Feb-27 17:33N 38°01' E 012°30'0 0.0
2015-Feb-27 16:33N 38°01' E 012°30'0 0.0
2015-Feb-27 15:33N 38°01' E 012°30'0 0.0
2015-Feb-27 14:33N 38°01' E 012°30'0 0.0
2015-Feb-27 13:33N 38°01' E 012°30'0 0.0
2015-Feb-27 12:33N 38°01' E 012°30'0 0.0
2015-Feb-27 11:33N 38°01' E 012°30'0 0.0
2015-Feb-27 10:33N 38°01' E 012°30'0 0.0
2015-Feb-27 09:33N 38°01' E 012°30'0 0.0
2015-Feb-27 08:33N 38°01' E 012°30'0 0.0
2015-Feb-27 07:33N 38°01' E 012°30'0 0.0
2015-Feb-27 06:33N 38°01' E 012°30'0 0.0
2015-Feb-27 05:33N 38°01' E 012°30'0 0.0
2015-Feb-27 04:33N 38°01' E 012°30'0 0.0
2015-Feb-27 03:33N 38°01' E 012°30'0 0.0
2015-Feb-27 02:33N 38°01' E 012°30'0 0.0
2015-Feb-27 01:33N 38°01' E 012°30'0 0.0
2015-Feb-27 00:33N 38°01' E 012°30'0 0.0
2015-Feb-26 23:33N 38°01' E 012°30'0 0.0
2015-Feb-26 22:33N 38°01' E 012°30'0 0.0
2015-Feb-26 21:33N 38°01' E 012°30'0 0.0
2015-Feb-26 20:33N 38°01' E 012°30'0 0.0
2015-Feb-26 19:33N 38°01' E 012°30'0 0.0
2015-Feb-26 18:33N 38°01' E 012°30'0 0.0
2015-Feb-26 17:33N 38°01' E 012°30'0 0.0
2015-Feb-26 16:33N 38°01' E 012°30'0 0.0
2015-Feb-26 15:33N 38°01' E 012°30'0 0.0
2015-Feb-26 14:33N 38°01' E 012°30'0 0.0
2015-Feb-26 13:33N 38°01' E 012°30'0 0.0
2015-Feb-26 12:34N 38°01' E 012°30'0 0.0
2015-Feb-26 11:33N 38°01' E 012°30'0 0.0
2015-Feb-26 10:33N 38°01' E 012°30'0 0.0
2015-Feb-26 09:33N 38°01' E 012°30'0 0.0
2015-Feb-26 08:34N 38°01' E 012°30'0 0.0
2015-Feb-26 02:16N 38°01' E 012°30'0 0.0
2015-Feb-26 01:33N 38°01' E 012°30'0 0.0
2015-Feb-26 00:33N 38°01' E 012°30'0 0.0
2015-Feb-25 23:33N 38°01' E 012°30'0 0.0
2015-Feb-25 22:33N 38°01' E 012°30'0 0.0
2015-Feb-25 21:33N 38°01' E 012°30'0 0.0
2015-Feb-25 20:33N 38°01' E 012°30'0 0.0
2015-Feb-25 19:32N 38°01' E 012°30'0 0.0
2015-Feb-25 18:33N 38°01' E 012°30'0 0.0
2015-Feb-25 17:33N 38°01' E 012°30'0 0.0
2015-Feb-25 16:33N 38°01' E 012°30'0 0.0
2015-Feb-25 15:32N 38°01' E 012°30'0 0.0
2015-Feb-25 14:33N 38°01' E 012°30'0 0.0
2015-Feb-25 13:33N 38°01' E 012°30'0 0.0
2015-Feb-25 12:33N 38°01' E 012°30'0 0.0
2015-Feb-25 11:33N 38°01' E 012°30'0 0.0
2015-Feb-25 10:33N 38°01' E 012°30'0 0.0
2015-Feb-25 09:33N 38°01' E 012°30'0 0.0
2015-Feb-25 08:33N 38°01' E 012°30'0 0.0
2015-Feb-25 07:33N 38°01' E 012°30'0 0.0
2015-Feb-25 06:33N 38°01' E 012°30'0 0.0
2015-Feb-25 05:33N 38°01' E 012°30'0 0.0
2015-Feb-25 04:34N 38°01' E 012°30'0 0.0
2015-Feb-25 03:33N 38°01' E 012°30'0 0.0
2015-Feb-25 02:33N 38°01' E 012°30'0 0.0
2015-Feb-25 01:33N 38°01' E 012°30'0 0.0
2015-Feb-25 00:33N 38°01' E 012°30'0 0.0
2015-Feb-24 23:33N 38°01' E 012°30'0 0.0
2015-Feb-24 22:33N 38°01' E 012°30'0 0.0
2015-Feb-24 21:33N 38°01' E 012°30'0 0.0
2015-Feb-24 20:33N 38°01' E 012°30'0 0.0
2015-Feb-24 19:33N 38°01' E 012°30'0 0.0
2015-Feb-24 18:33N 38°01' E 012°30'0 0.0
2015-Feb-24 17:33N 38°01' E 012°30'0 0.0
2015-Feb-24 16:33N 38°01' E 012°30'0 0.0
2015-Feb-24 15:33N 38°01' E 012°30'0 0.0
2015-Feb-24 14:33N 38°01' E 012°30'0 0.0
2015-Feb-24 13:33N 38°01' E 012°30'0 0.0
2015-Feb-24 12:33N 38°01' E 012°30'0 0.0
2015-Feb-24 11:33N 38°01' E 012°30'0 0.0
2015-Feb-24 10:33N 38°01' E 012°30'0 0.0
2015-Feb-24 09:33N 38°01' E 012°30'0 0.0
2015-Feb-24 08:33N 38°01' E 012°30'0 0.0
2015-Feb-24 07:33N 38°01' E 012°30'0 0.0
2015-Feb-24 06:33N 38°01' E 012°30'0 0.0
2015-Feb-24 05:33N 38°01' E 012°30'0 0.0
2015-Feb-24 04:33N 38°01' E 012°30'0 0.0
2015-Feb-24 03:33N 38°01' E 012°30'0 0.0
2015-Feb-24 02:33N 38°01' E 012°30'0 0.0
2015-Feb-24 01:34N 38°01' E 012°30'0 0.0
2015-Feb-24 00:33N 38°01' E 012°30'0 0.0
2015-Feb-23 23:33N 38°01' E 012°30'0 0.0
2015-Feb-23 22:33N 38°01' E 012°30'0 0.0
2015-Feb-23 21:33N 38°01' E 012°30'0 0.0
2015-Feb-23 20:33N 38°01' E 012°30'0 0.0
2015-Feb-23 19:33N 38°01' E 012°30'0 0.0
2015-Feb-23 18:33N 38°01' E 012°30'0 0.0
2015-Feb-23 17:33N 38°01' E 012°30'0 0.0
2015-Feb-23 16:33N 38°01' E 012°30'0 0.0
2015-Feb-23 15:33N 38°01' E 012°30'0 0.0
2015-Feb-23 14:33N 38°01' E 012°30'0 0.0
2015-Feb-23 13:33N 38°01' E 012°30'0 0.0
2015-Feb-23 12:33N 38°01' E 012°30'0 0.0
2015-Feb-23 11:33N 38°01' E 012°30'0 0.0
2015-Feb-23 10:33N 38°01' E 012°30'0 0.0
2015-Feb-23 09:33N 38°01' E 012°30'0 0.0
2015-Feb-23 08:33N 38°01' E 012°30'0 0.0
2015-Feb-23 07:33N 38°01' E 012°30'0 0.0
2015-Feb-23 06:33N 38°01' E 012°30'0 0.0
2015-Feb-23 05:33N 38°01' E 012°30'0 0.0
2015-Feb-23 04:33N 38°01' E 012°30'0 0.0
2015-Feb-23 03:33N 38°01' E 012°30'0 0.0
2015-Feb-23 02:34N 38°01' E 012°30'0 0.0
2015-Feb-23 01:33N 38°01' E 012°30'0 0.0
2015-Feb-23 00:33N 38°01' E 012°30'0 0.0
2015-Feb-22 23:32N 38°01' E 012°30'0 0.0
2015-Feb-22 22:33N 38°01' E 012°30'0 0.0
2015-Feb-22 21:33N 38°01' E 012°30'0 0.0
2015-Feb-22 20:33N 38°01' E 012°30'0 0.0
2015-Feb-22 19:33N 38°01' E 012°30'0 0.0
2015-Feb-22 18:33N 38°01' E 012°30'0 0.0
2015-Feb-22 17:33N 38°01' E 012°30'0 0.0
2015-Feb-22 16:33N 38°01' E 012°30'0 0.0
2015-Feb-22 15:33N 38°01' E 012°30'0 0.0
2015-Feb-22 14:33N 38°01' E 012°30'0 0.0
2015-Feb-22 13:33N 38°01' E 012°30'0 0.0
2015-Feb-22 12:33N 38°01' E 012°30'0 0.0
2015-Feb-22 11:33N 38°01' E 012°30'0 0.0
2015-Feb-22 10:33N 38°01' E 012°30'0 0.0
2015-Feb-22 09:33N 38°01' E 012°30'0 0.0
2015-Feb-22 08:33N 38°01' E 012°30'0 0.0
2015-Feb-22 07:33N 38°01' E 012°30'0 0.0
2015-Feb-21 14:10N 38°01' E 012°30'0 0.0
2015-Feb-21 13:33N 38°01' E 012°30'0 0.0
2015-Feb-21 12:33N 38°01' E 012°30'0 0.0
2015-Feb-21 11:33N 38°01' E 012°30'0 0.0
2015-Feb-21 10:33N 38°01' E 012°30'0 0.0
2015-Feb-21 09:34N 38°01' E 012°30'0 0.0
2015-Feb-21 08:33N 38°01' E 012°30'0 0.0
2015-Feb-21 07:33N 38°01' E 012°30'0 0.0
2015-Feb-21 06:33N 38°01' E 012°30'0 0.0
2015-Feb-21 05:34N 38°01' E 012°30'0 0.0
2015-Feb-21 04:33N 38°01' E 012°30'0 0.0
2015-Feb-21 03:33N 38°01' E 012°30'0 0.0
2015-Feb-21 02:33N 38°01' E 012°30'0 0.0
2015-Feb-21 01:33N 38°01' E 012°30'0 0.0
2015-Feb-21 00:33N 38°01' E 012°30'0 0.0
2015-Feb-20 23:33N 38°01' E 012°30'0 0.0
2015-Feb-20 22:33N 38°01' E 012°30'0 0.0
2015-Feb-20 21:33N 38°01' E 012°30'  
Track history (hours):
 
Tides and Currents Weather Stations Pressure Air Temp Water Temp Dewpoint Dewpoint Depression Visibility Wind Speed Wind Dir Waves Ship Positions

Pietro Novelli

Last reported at 2015-Mar-02 20:33 UTC. Time now 2015-Mar-02 20:40 UTC.
Position N 38°01' E 012°30'.

Length 91 m; draft 3.9 m.

Type: Ship. MMSI: 247000300.

Date/timePositionNaut miles runAvg speedWind from/ knotsBaromVisibWave heightAir tempDewpointWater temp
2015-Mar-02 20:33N 38°01' E 012°30'0 0.0
2015-Mar-02 19:33N 38°01' E 012°30'0 0.0
2015-Mar-02 18:33N 38°01' E 012°30'0 0.0
2015-Mar-02 17:33N 38°01' E 012°30'0 0.0
2015-Mar-02 16:33N 38°01' E 012°30'0 0.0
2015-Mar-02 15:33N 38°01' E 012°30'1 1.2
2015-Mar-02 14:33N 37°60' E 012°29'1312.7
2015-Mar-02 13:33N 37°50' E 012°19'4 0.3
2015-Mar-01 23:31N 37°46' E 012°20'1111.8
2015-Mar-01 22:33N 37°56' E 012°25'6 6.1
2015-Mar-01 21:33N 38°01' E 012°30'0 0.0
2015-Mar-01 20:33N 38°01' E 012°30'0 0.0
2015-Mar-01 19:33N 38°01' E 012°30'0 0.0
2015-Mar-01 18:33N 38°01' E 012°30'0 0.0
2015-Mar-01 17:33N 38°01' E 012°30'0 0.0
2015-Mar-01 16:33N 38°01' E 012°30'0 0.0
2015-Mar-01 15:33N 38°01' E 012°30'0 0.0
2015-Mar-01 14:33N 38°01' E 012°30'0 0.0
2015-Mar-01 13:33N 38°01' E 012°30'0 0.0
2015-Mar-01 12:33N 38°01' E 012°30'0 0.0
2015-Mar-01 11:33N 38°01' E 012°30'0 0.0
2015-Mar-01 10:33N 38°01' E 012°30'0 0.0
2015-Mar-01 09:33N 38°01' E 012°30'0 0.0
2015-Mar-01 08:34N 38°01' E 012°30'0 0.0
2015-Mar-01 07:32N 38°01' E 012°30'0 0.0
2015-Mar-01 06:33N 38°01' E 012°30'0 0.0
2015-Mar-01 05:33N 38°01' E 012°30'0 0.0
2015-Mar-01 04:33N 38°01' E 012°30'0 0.0
2015-Mar-01 03:32N 38°01' E 012°30'0 0.0
2015-Mar-01 02:33N 38°01' E 012°30'0 0.0
2015-Mar-01 01:33N 38°01' E 012°30'0 0.0
2015-Mar-01 00:33N 38°01' E 012°30'0 0.0
2015-Feb-28 23:33N 38°01' E 012°30'0 0.0
2015-Feb-28 22:32N 38°01' E 012°30'0 0.0
2015-Feb-28 21:33N 38°01' E 012°30'0 0.0
2015-Feb-28 20:33N 38°01' E 012°30'0 0.0
2015-Feb-28 19:34N 38°01' E 012°30'0 0.0
2015-Feb-28 18:33N 38°01' E 012°30'0 0.0
2015-Feb-28 17:33N 38°01' E 012°30'0 0.1
2015-Feb-28 16:33N 38°01' E 012°30'1313.4
2015-Feb-28 15:33N 37°50' E 012°20'5 0.3
2015-Feb-27 23:33N 37°46' E 012°20'1211.8
2015-Feb-27 22:33N 37°57' E 012°25'6 5.7
2015-Feb-27 21:33N 38°01' E 012°30'0 0.0
2015-Feb-27 20:33N 38°01' E 012°30'0 0.0
2015-Feb-27 19:33N 38°01' E 012°30'0 0.0
2015-Feb-27 18:33N 38°01' E 012°30'0 0.0
2015-Feb-27 17:33N 38°01' E 012°30'0 0.0
2015-Feb-27 16:33N 38°01' E 012°30'0 0.0
2015-Feb-27 15:33N 38°01' E 012°30'0 0.0
2015-Feb-27 14:33N 38°01' E 012°30'0 0.0
2015-Feb-27 13:33N 38°01' E 012°30'0 0.0
2015-Feb-27 12:33N 38°01' E 012°30'0 0.0
2015-Feb-27 11:33N 38°01' E 012°30'0 0.0
2015-Feb-27 10:33N 38°01' E 012°30'0 0.0
2015-Feb-27 09:33N 38°01' E 012°30'0 0.0
2015-Feb-27 08:33N 38°01' E 012°30'0 0.0
2015-Feb-27 07:33N 38°01' E 012°30'0 0.0
2015-Feb-27 06:33N 38°01' E 012°30'0 0.0
2015-Feb-27 05:33N 38°01' E 012°30'0 0.0
2015-Feb-27 04:33N 38°01' E 012°30'0 0.0
2015-Feb-27 03:33N 38°01' E 012°30'0 0.0
2015-Feb-27 02:33N 38°01' E 012°30'0 0.0
2015-Feb-27 01:33N 38°01' E 012°30'0 0.0
2015-Feb-27 00:33N 38°01' E 012°30'0 0.0
2015-Feb-26 23:33N 38°01' E 012°30'0 0.0
2015-Feb-26 22:33N 38°01' E 012°30'0 0.0
2015-Feb-26 21:33N 38°01' E 012°30'0 0.0
2015-Feb-26 20:33N 38°01' E 012°30'0 0.0
2015-Feb-26 19:33N 38°01' E 012°30'0 0.0
2015-Feb-26 18:33N 38°01' E 012°30'0 0.0
2015-Feb-26 17:33N 38°01' E 012°30'0 0.0
2015-Feb-26 16:33N 38°01' E 012°30'0 0.0
2015-Feb-26 15:33N 38°01' E 012°30'0 0.0
2015-Feb-26 14:33N 38°01' E 012°30'0 0.0
2015-Feb-26 13:33N 38°01' E 012°30'0 0.0
2015-Feb-26 12:34N 38°01' E 012°30'0 0.0
2015-Feb-26 11:33N 38°01' E 012°30'0 0.0
2015-Feb-26 10:33N 38°01' E 012°30'0 0.0
2015-Feb-26 09:33N 38°01' E 012°30'0 0.0
2015-Feb-26 08:34N 38°01' E 012°30'0 0.0
2015-Feb-26 02:16N 38°01' E 012°30'0 0.0
2015-Feb-26 01:33N 38°01' E 012°30'0 0.0
2015-Feb-26 00:33N 38°01' E 012°30'0 0.0
2015-Feb-25 23:33N 38°01' E 012°30'0 0.0
2015-Feb-25 22:33N 38°01' E 012°30'0 0.0
2015-Feb-25 21:33N 38°01' E 012°30'0 0.0
2015-Feb-25 20:33N 38°01' E 012°30'0 0.0
2015-Feb-25 19:32N 38°01' E 012°30'0 0.0
2015-Feb-25 18:33N 38°01' E 012°30'0 0.0
2015-Feb-25 17:33N 38°01' E 012°30'0 0.0
2015-Feb-25 16:33N 38°01' E 012°30'0 0.0
2015-Feb-25 15:32N 38°01' E 012°30'0 0.0
2015-Feb-25 14:33N 38°01' E 012°30'0 0.0
2015-Feb-25 13:33N 38°01' E 012°30'0 0.0
2015-Feb-25 12:33N 38°01' E 012°30'0 0.0
2015-Feb-25 11:33N 38°01' E 012°30'0 0.0
2015-Feb-25 10:33N 38°01' E 012°30'0 0.0
2015-Feb-25 09:33N 38°01' E 012°30'0 0.0
2015-Feb-25 08:33N 38°01' E 012°30'0 0.0
2015-Feb-25 07:33N 38°01' E 012°30'0 0.0
2015-Feb-25 06:33N 38°01' E 012°30'0 0.0
2015-Feb-25 05:33N 38°01' E 012°30'0 0.0
2015-Feb-25 04:34N 38°01' E 012°30'0 0.0
2015-Feb-25 03:33N 38°01' E 012°30'0 0.0
2015-Feb-25 02:33N 38°01' E 012°30'0 0.0
2015-Feb-25 01:33N 38°01' E 012°30'0 0.0
2015-Feb-25 00:33N 38°01' E 012°30'0 0.0
2015-Feb-24 23:33N 38°01' E 012°30'0 0.0
2015-Feb-24 22:33N 38°01' E 012°30'0 0.0
2015-Feb-24 21:33N 38°01' E 012°30'0 0.0
2015-Feb-24 20:33N 38°01' E 012°30'0 0.0
2015-Feb-24 19:33N 38°01' E 012°30'0 0.0
2015-Feb-24 18:33N 38°01' E 012°30'0 0.0
2015-Feb-24 17:33N 38°01' E 012°30'0 0.0
2015-Feb-24 16:33N 38°01' E 012°30'0 0.0
2015-Feb-24 15:33N 38°01' E 012°30'0 0.0
2015-Feb-24 14:33N 38°01' E 012°30'0 0.0
2015-Feb-24 13:33N 38°01' E 012°30'0 0.0
2015-Feb-24 12:33N 38°01' E 012°30'0 0.0
2015-Feb-24 11:33N 38°01' E 012°30'0 0.0
2015-Feb-24 10:33N 38°01' E 012°30'0 0.0
2015-Feb-24 09:33N 38°01' E 012°30'0 0.0
2015-Feb-24 08:33N 38°01' E 012°30'0 0.0
2015-Feb-24 07:33N 38°01' E 012°30'0 0.0
2015-Feb-24 06:33N 38°01' E 012°30'0 0.0
2015-Feb-24 05:33N 38°01' E 012°30'0 0.0
2015-Feb-24 04:33N 38°01' E 012°30'0 0.0
2015-Feb-24 03:33N 38°01' E 012°30'0 0.0
2015-Feb-24 02:33N 38°01' E 012°30'0 0.0
2015-Feb-24 01:34N 38°01' E 012°30'0 0.0
2015-Feb-24 00:33N 38°01' E 012°30'0 0.0
2015-Feb-23 23:33N 38°01' E 012°30'0 0.0
2015-Feb-23 22:33N 38°01' E 012°30'0 0.0
2015-Feb-23 21:33N 38°01' E 012°30'0 0.0
2015-Feb-23 20:33N 38°01' E 012°30'0 0.0
2015-Feb-23 19:33N 38°01' E 012°30'0 0.0
2015-Feb-23 18:33N 38°01' E 012°30'0 0.0
2015-Feb-23 17:33N 38°01' E 012°30'0 0.0
2015-Feb-23 16:33N 38°01' E 012°30'0 0.0
2015-Feb-23 15:33N 38°01' E 012°30'0 0.0
2015-Feb-23 14:33N 38°01' E 012°30'0 0.0
2015-Feb-23 13:33N 38°01' E 012°30'0 0.0
2015-Feb-23 12:33N 38°01' E 012°30'0 0.0
2015-Feb-23 11:33N 38°01' E 012°30'0 0.0
2015-Feb-23 10:33N 38°01' E 012°30'0 0.0
2015-Feb-23 09:33N 38°01' E 012°30'0 0.0
2015-Feb-23 08:33N 38°01' E 012°30'0 0.0
2015-Feb-23 07:33N 38°01' E 012°30'0 0.0
2015-Feb-23 06:33N 38°01' E 012°30'0 0.0
2015-Feb-23 05:33N 38°01' E 012°30'0 0.0
2015-Feb-23 04:33N 38°01' E 012°30'0 0.0
2015-Feb-23 03:33N 38°01' E 012°30'0 0.0
2015-Feb-23 02:34N 38°01' E 012°30'0 0.0
2015-Feb-23 01:33N 38°01' E 012°30'0 0.0
2015-Feb-23 00:33N 38°01' E 012°30'0 0.0
2015-Feb-22 23:32N 38°01' E 012°30'0 0.0
2015-Feb-22 22:33N 38°01' E 012°30'0 0.0
2015-Feb-22 21:33N 38°01' E 012°30'0 0.0
2015-Feb-22 20:33N 38°01' E 012°30'0 0.0
2015-Feb-22 19:33N 38°01' E 012°30'0 0.0
2015-Feb-22 18:33N 38°01' E 012°30'0 0.0
2015-Feb-22 17:33N 38°01' E 012°30'0 0.0
2015-Feb-22 16:33N 38°01' E 012°30'0 0.0
2015-Feb-22 15:33N 38°01' E 012°30'0 0.0
2015-Feb-22 14:33N 38°01' E 012°30'0 0.0
2015-Feb-22 13:33N 38°01' E 012°30'0 0.0
2015-Feb-22 12:33N 38°01' E 012°30'0 0.0
2015-Feb-22 11:33N 38°01' E 012°30'0 0.0
2015-Feb-22 10:33N 38°01' E 012°30'0 0.0
2015-Feb-22 09:33N 38°01' E 012°30'0 0.0
2015-Feb-22 08:33N 38°01' E 012°30'0 0.0
2015-Feb-22 07:33N 38°01' E 012°30'0 0.0
2015-Feb-21 14:10N 38°01' E 012°30'0 0.0
2015-Feb-21 13:33N 38°01' E 012°30'0 0.0
2015-Feb-21 12:33N 38°01' E 012°30'0 0.0
2015-Feb-21 11:33N 38°01' E 012°30'0 0.0
2015-Feb-21 10:33N 38°01' E 012°30'0 0.0
2015-Feb-21 09:34N 38°01' E 012°30'0 0.0
2015-Feb-21 08:33N 38°01' E 012°30'0 0.0
2015-Feb-21 07:33N 38°01' E 012°30'0 0.0
2015-Feb-21 06:33N 38°01' E 012°30'0 0.0
2015-Feb-21 05:34N 38°01' E 012°30'0 0.0
2015-Feb-21 04:33N 38°01' E 012°30'0 0.0
2015-Feb-21 03:33N 38°01' E 012°30'0 0.0
2015-Feb-21 02:33N 38°01' E 012°30'0 0.0
2015-Feb-21 01:33N 38°01' E 012°30'0 0.0
2015-Feb-21 00:33N 38°01' E 012°30'0 0.0
2015-Feb-20 23:33N 38°01' E 012°30'0 0.0
2015-Feb-20 22:33N 38°01' E 012°30'0 0.0
2015-Feb-20 21:33N 38°01' E 012°30'  

Dump ship's entire track history